Time;durP1;ratioP1;P1;durP2;ratioP2;P2;SDS_P1;SDS_P2;PMS_P1;PMS_P2;Temp;Humidity;BMP_temperature;BMP_pressure;BME280_temperature;BME280_humidity;BME280_pressure;Samples;Min_cycle;Max_cycle;Signal;HPM_P1;HPM_P2
2023/03/01 00:01:06;;;;;;;19.80;12.20;;;0.70;99.90;;;;;;5127627;27;20027;-46
2023/03/01 00:03:32;;;;;;;23.80;13.13;;;-0.10;99.90;;;;;;5129990;27;20083;-49
2023/03/01 00:05:58;;;;;;;23.08;12.57;;;0.60;99.90;;;;;;5109864;27;20039;-48
2023/03/01 00:08:24;;;;;;;26.25;14.57;;;0.60;99.90;;;;;;5129153;27;20039;-47
2023/03/01 00:11:00;;;;;;;23.90;13.32;;;0.60;99.90;;;;;;5130236;27;20039;-51
2023/03/01 00:13:26;;;;;;;23.30;12.98;;;0.60;99.90;;;;;;5129099;27;20036;-48
2023/03/01 00:15:52;;;;;;;24.65;14.32;;;0.70;99.90;;;;;;5131599;27;20043;-51
2023/03/01 00:18:17;;;;;;;22.73;13.45;;;0.60;99.90;;;;;;5129359;27;20035;-50
2023/03/01 00:20:53;;;;;;;26.02;12.98;;;0.50;99.90;;;;;;5094305;27;20039;-49
2023/03/01 00:23:19;;;;;;;24.98;12.82;;;0.60;99.90;;;;;;5128517;27;20067;-51
2023/03/01 00:25:45;;;;;;;23.75;12.82;;;0.50;99.90;;;;;;5129229;27;20035;-48
2023/03/01 00:28:10;;;;;;;22.70;12.38;;;0.50;99.90;;;;;;5128738;27;20028;-49
2023/03/01 00:30:36;;;;;;;25.00;13.23;;;0.50;99.90;;;;;;5130500;27;20077;-49
2023/03/01 00:33:02;;;;;;;22.55;13.80;;;0.50;99.90;;;;;;5131301;28;20095;-49
2023/03/01 00:35:27;;;;;;;27.52;13.10;;;0.50;99.90;;;;;;5131408;28;20042;-47
2023/03/01 00:37:57;;;;;;;23.13;13.85;;;0.40;99.90;;;;;;5130114;28;20084;-49
2023/03/01 00:40:28;;;;;;;23.05;12.70;;;0.40;99.90;;;;;;5130186;28;20490;-47
2023/03/01 00:42:54;;;;;;;23.55;13.63;;;0.30;99.90;;;;;;5128856;28;20143;-49
2023/03/01 00:45:19;;;;;;;24.58;13.60;;;0.10;99.90;;;;;;5131342;27;20027;-49
2023/03/01 00:47:45;;;;;;;27.10;13.80;;;0.10;99.90;;;;;;5135716;27;20042;-50
2023/03/01 00:50:11;;;;;;;25.25;13.60;;;0.80;99.90;;;;;;5135665;27;20088;-47
2023/03/01 00:52:37;;;;;;;23.15;12.98;;;0.10;99.90;;;;;;5131890;27;20076;-48
2023/03/01 00:55:05;;;;;;;21.80;12.68;;;0.50;99.90;;;;;;5134069;27;20108;-48
2023/03/01 00:57:32;;;;;;;21.98;12.90;;;0.00;99.90;;;;;;5132219;27;20044;-49
2023/03/01 00:59:57;;;;;;;23.63;13.57;;;-0.10;99.90;;;;;;5133455;27;20140;-49
2023/03/01 01:02:23;;;;;;;24.40;13.65;;;-0.10;99.90;;;;;;5095938;27;20075;-48
2023/03/01 01:04:49;;;;;;;21.92;13.63;;;-0.10;99.90;;;;;;5134010;27;20560;-50
2023/03/01 01:07:15;;;;;;;23.92;12.88;;;-0.20;99.90;;;;;;5132590;27;20123;-49
2023/03/01 01:09:41;;;;;;;24.15;12.80;;;-0.30;99.90;;;;;;5130654;27;20035;-47
2023/03/01 01:12:06;;;;;;;25.17;12.55;;;-0.30;99.90;;;;;;5133564;27;20037;-47
2023/03/01 01:14:32;;;;;;;28.65;15.43;;;-0.30;99.90;;;;;;5132988;27;20047;-49
2023/03/01 01:16:58;;;;;;;27.10;14.68;;;-0.30;99.90;;;;;;5099589;27;20533;-45
2023/03/01 01:19:24;;;;;;;28.35;13.80;;;-0.30;99.90;;;;;;5134155;27;20084;-47
2023/03/01 01:21:50;;;;;;;29.52;14.80;;;-0.30;99.90;;;;;;5100518;27;20483;-47
2023/03/01 01:24:16;;;;;;;27.92;14.65;;;-0.40;99.90;;;;;;5132981;27;20043;-47
2023/03/01 01:26:43;;;;;;;28.30;14.95;;;-0.40;99.90;;;;;;5133047;27;20035;-48
2023/03/01 01:29:09;;;;;;;28.15;14.00;;;-0.40;99.90;;;;;;5086920;28;20048;-50
2023/03/01 01:31:37;;;;;;;27.52;15.60;;;-0.40;99.90;;;;;;5094364;27;20031;-49
2023/03/01 01:34:05;;;;;;;27.58;13.82;;;-0.40;99.90;;;;;;5133483;27;20479;-49
2023/03/01 01:36:32;;;;;;;25.55;14.18;;;0.00;99.90;;;;;;5132719;27;20367;-47
2023/03/01 01:38:58;;;;;;;29.13;14.85;;;-0.50;99.90;;;;;;5103647;28;20141;-48
2023/03/01 01:41:25;;;;;;;26.77;13.65;;;-0.40;99.90;;;;;;5123684;27;20398;-47
2023/03/01 01:44:30;;;;;;;28.75;14.80;;;-0.50;99.90;;;;;;5133017;27;20051;-49
2023/03/01 01:46:59;;;;;;;26.10;13.85;;;-0.60;99.90;;;;;;5030314;28;20508;-47
2023/03/01 01:49:29;;;;;;;31.25;15.48;;;-0.60;99.90;;;;;;5029948;28;20030;-46
2023/03/01 01:52:10;;;;;;;34.58;15.88;;;-0.40;99.90;;;;;;5052012;28;20091;-48
2023/03/01 01:54:44;;;;;;;28.10;14.30;;;-0.60;99.90;;;;;;5100042;27;20050;-50
2023/03/01 01:57:19;;;;;;;32.35;15.05;;;-0.70;99.90;;;;;;5131855;27;20050;-48
2023/03/01 01:59:51;;;;;;;33.00;16.02;;;-0.70;99.90;;;;;;5132342;27;20039;-48
2023/03/01 02:02:17;;;;;;;30.95;15.38;;;-0.60;99.90;;;;;;5082163;28;20039;-48
2023/03/01 02:04:43;;;;;;;33.65;16.05;;;-0.60;99.90;;;;;;5091936;28;20073;-50
2023/03/01 02:07:19;;;;;;;33.47;16.80;;;-0.60;99.90;;;;;;5119048;27;20043;-47
2023/03/01 02:09:47;;;;;;;31.55;15.88;;;-0.60;99.90;;;;;;5133363;27;20141;-47
2023/03/01 02:12:15;;;;;;;33.47;15.93;;;-0.60;99.90;;;;;;5131198;27;20050;-46
2023/03/01 02:14:40;;;;;;;31.23;15.93;;;0.00;99.90;;;;;;5132485;27;20128;-49
2023/03/01 02:17:06;;;;;;;31.98;16.45;;;-0.50;99.90;;;;;;5131112;27;20039;-47
2023/03/01 02:19:56;;;;;;;33.58;16.50;;;-0.50;99.90;;;;;;5101450;28;20367;-46
2023/03/01 02:22:27;;;;;;;40.88;17.70;;;-0.50;99.90;;;;;;5130944;27;20031;-50
2023/03/01 02:24:59;;;;;;;29.63;15.95;;;-0.50;99.90;;;;;;5098385;28;20055;-51
2023/03/01 02:27:31;;;;;;;38.65;16.00;;;-0.50;99.90;;;;;;5129947;27;20489;-49
2023/03/01 02:29:57;;;;;;;30.27;16.17;;;-0.50;99.90;;;;;;5131240;27;20505;-48
2023/03/01 02:32:24;;;;;;;36.42;17.58;;;-0.50;99.90;;;;;;5102929;28;20035;-48
2023/03/01 02:34:55;;;;;;;36.30;17.98;;;-0.50;99.90;;;;;;5097707;27;20066;-47
2023/03/01 02:37:24;;;;;;;31.42;17.08;;;-0.50;99.90;;;;;;5131928;27;20031;-49
2023/03/01 02:39:57;;;;;;;34.70;17.88;;;1.40;99.90;;;;;;5131951;27;20067;-47
2023/03/01 02:42:30;;;;;;;36.17;17.83;;;-0.50;99.90;;;;;;5131520;27;20165;-49
2023/03/01 02:44:56;;;;;;;38.30;18.15;;;-0.50;99.90;;;;;;5130930;27;20074;-47
2023/03/01 02:47:21;;;;;;;44.35;18.48;;;0.10;99.90;;;;;;5132660;27;20074;-49
2023/03/01 02:49:47;;;;;;;33.42;17.48;;;-0.50;99.90;;;;;;5131042;27;20502;-47
2023/03/01 02:52:46;;;;;;;36.75;18.20;;;-0.40;99.90;;;;;;5130786;27;20035;-49
2023/03/01 02:55:15;;;;;;;38.05;18.52;;;-0.40;99.90;;;;;;5128742;27;20047;-48
2023/03/01 02:57:43;;;;;;;36.35;18.13;;;-0.50;99.90;;;;;;5131279;27;20427;-46
2023/03/01 03:00:20;;;;;;;44.10;19.35;;;-0.40;99.90;;;;;;5132388;27;20111;-47
2023/03/01 03:02:51;;;;;;;38.63;19.35;;;-0.40;99.90;;;;;;5130705;27;20039;-48
2023/03/01 03:05:23;;;;;;;38.17;17.83;;;-0.50;99.90;;;;;;5097601;28;20085;-49
2023/03/01 03:07:49;;;;;;;46.33;18.48;;;-0.40;99.90;;;;;;5089930;28;20027;-47
2023/03/01 03:10:19;;;;;;;39.03;18.05;;;-0.50;99.90;;;;;;5117652;27;20039;-49
2023/03/01 03:12:51;;;;;;;40.00;17.65;;;-0.50;99.90;;;;;;5093873;28;20047;-46
2023/03/01 03:15:17;;;;;;;37.13;17.05;;;-0.50;99.90;;;;;;5119944;27;20038;-49
2023/03/01 03:17:43;;;;;;;37.80;17.13;;;-0.50;99.90;;;;;;5130947;27;20459;-50
2023/03/01 03:20:12;;;;;;;35.10;15.45;;;-0.60;99.90;;;;;;5130207;27;20127;-50
2023/03/01 03:22:39;;;;;;;35.13;16.17;;;-0.60;99.90;;;;;;5131213;27;20047;-49
2023/03/01 03:25:10;;;;;;;33.63;15.82;;;-0.70;99.90;;;;;;5099261;27;20044;-49
2023/03/01 03:27:37;;;;;;;37.95;16.60;;;-0.80;99.90;;;;;;5130445;27;20035;-49
2023/03/01 03:30:08;;;;;;;32.63;15.43;;;-0.80;99.90;;;;;;5130198;27;20086;-45
2023/03/01 03:32:35;;;;;;;45.72;16.05;;;-0.90;99.90;;;;;;5132592;27;20035;-50
2023/03/01 03:35:08;;;;;;;30.00;15.18;;;-1.00;99.90;;;;;;5132354;27;20488;-50
2023/03/01 03:38:01;;;;;;;36.05;15.95;;;-1.00;99.90;;;;;;5130501;27;20039;-49
2023/03/01 03:40:37;;;;;;;34.42;15.75;;;-1.00;99.90;;;;;;5129959;27;20092;-48
2023/03/01 03:43:05;;;;;;;48.67;16.08;;;-1.00;99.90;;;;;;5130355;27;20055;-48
2023/03/01 03:45:33;;;;;;;36.95;15.88;;;-1.00;99.90;;;;;;5131162;27;20119;-47
2023/03/01 03:47:59;;;;;;;35.63;16.38;;;-1.00;99.90;;;;;;5130409;27;20517;-47
2023/03/01 03:50:26;;;;;;;34.40;16.90;;;-1.00;99.90;;;;;;5130583;27;20023;-47
2023/03/01 03:52:51;;;;;;;38.90;17.58;;;-1.00;99.90;;;;;;5129552;27;20459;-49
2023/03/01 03:55:19;;;;;;;37.90;16.98;;;-1.00;99.90;;;;;;5098947;28;20072;-47
2023/03/01 03:57:53;;;;;;;39.30;17.52;;;-1.00;99.90;;;;;;5125242;27;20039;-48
2023/03/01 04:00:23;;;;;;;43.95;16.23;;;-1.10;99.90;;;;;;5097311;28;20048;-47
2023/03/01 04:02:50;;;;;;;46.78;16.48;;;-1.10;99.90;;;;;;5089919;28;20031;-48
2023/03/01 04:05:18;;;;;;;68.70;17.15;;;-1.10;99.90;;;;;;5095818;28;20052;-47
2023/03/01 04:07:45;;;;;;;70.22;16.65;;;-1.10;99.90;;;;;;5127255;27;20043;-46
2023/03/01 04:10:16;;;;;;;76.82;15.38;;;-1.20;99.90;;;;;;5130349;27;20378;-47
2023/03/01 04:12:43;;;;;;;44.17;16.50;;;-1.20;99.90;;;;;;5130102;27;20023;-48
2023/03/01 04:15:13;;;;;;;68.90;15.10;;;-1.30;99.90;;;;;;5096604;28;20043;-47
2023/03/01 04:17:43;;;;;;;52.95;15.18;;;-1.30;99.90;;;;;;5129640;27;20039;-49
2023/03/01 04:20:17;;;;;;;62.30;16.58;;;-1.30;99.90;;;;;;5122930;27;20490;-47
2023/03/01 04:22:46;;;;;;;49.97;14.35;;;-1.40;99.90;;;;;;5127031;27;20138;-48
2023/03/01 04:25:13;;;;;;;68.78;15.02;;;-1.40;99.90;;;;;;5130527;27;20023;-50
2023/03/01 04:27:40;;;;;;;49.83;15.07;;;-1.50;99.90;;;;;;5131773;27;20363;-50
2023/03/01 04:30:07;;;;;;;37.80;14.75;;;-1.50;99.90;;;;;;5130763;27;20035;-47
2023/03/01 04:32:33;;;;;;;54.03;13.88;;;-1.50;99.90;;;;;;5100997;28;20177;-48
2023/03/01 04:35:00;;;;;;;65.53;13.82;;;-1.60;99.90;;;;;;5120204;28;20054;-47
2023/03/01 04:37:26;;;;;;;74.35;16.05;;;-1.60;99.90;;;;;;5130467;28;20039;-46
2023/03/01 04:39:52;;;;;;;60.80;15.02;;;-1.60;99.90;;;;;;5129080;28;20031;-48
2023/03/01 04:42:19;;;;;;;57.03;14.52;;;-1.60;99.90;;;;;;5131254;28;20035;-49
2023/03/01 04:44:45;;;;;;;33.72;13.40;;;-1.70;99.90;;;;;;5131350;28;20050;-49
2023/03/01 04:47:11;;;;;;;42.50;14.07;;;-1.70;99.90;;;;;;5130490;28;20052;-52
2023/03/01 04:49:37;;;;;;;36.78;12.93;;;-1.80;99.90;;;;;;5097229;28;20039;-52
2023/03/01 04:52:04;;;;;;;37.88;13.38;;;-1.80;99.90;;;;;;5083728;28;20036;-51
2023/03/01 04:54:34;;;;;;;39.40;13.05;;;-1.80;99.90;;;;;;5117661;28;20050;-50
2023/03/01 04:57:00;;;;;;;39.42;13.45;;;-1.80;99.90;;;;;;5131258;28;20050;-49
2023/03/01 04:59:26;;;;;;;31.73;13.85;;;-1.80;99.90;;;;;;5098137;28;20052;-51
2023/03/01 05:01:55;;;;;;;28.67;13.07;;;-1.90;99.90;;;;;;5129483;28;20039;-52
2023/03/01 05:04:22;;;;;;;37.78;13.20;;;-1.90;99.90;;;;;;5095706;28;20044;-48
2023/03/01 05:06:47;;;;;;;35.35;14.18;;;-1.50;99.90;;;;;;5129333;28;20053;-50
2023/03/01 05:09:13;;;;;;;46.88;13.52;;;-1.80;99.90;;;;;;5128872;28;20529;-51
2023/03/01 05:11:39;;;;;;;72.57;15.07;;;-1.80;99.90;;;;;;5130101;28;20088;-49
2023/03/01 05:14:07;;;;;;;48.20;14.18;;;-1.90;99.90;;;;;;5128987;28;20054;-52
2023/03/01 05:16:33;;;;;;;38.20;13.48;;;-1.90;99.90;;;;;;5129387;28;20084;-51
2023/03/01 05:18:59;;;;;;;37.08;13.40;;;-2.10;99.90;;;;;;5129426;28;20356;-49
2023/03/01 05:21:26;;;;;;;37.58;14.13;;;-2.10;99.90;;;;;;5130514;28;20043;-49
2023/03/01 05:23:52;;;;;;;46.08;14.23;;;-2.20;99.90;;;;;;5130780;28;20050;-49
2023/03/01 05:26:21;;;;;;;24.85;13.68;;;-2.20;99.90;;;;;;5129936;28;20051;-47
2023/03/01 05:28:47;;;;;;;32.72;14.18;;;-2.30;99.90;;;;;;5128752;28;20496;-49
2023/03/01 05:31:13;;;;;;;75.25;16.80;;;-2.30;99.90;;;;;;5130202;27;20035;-51
2023/03/01 05:33:40;;;;;;;46.72;15.30;;;-2.40;99.90;;;;;;5098931;28;20547;-47
2023/03/01 05:36:09;;;;;;;34.10;14.07;;;-2.30;99.90;;;;;;5105414;28;20063;-50
2023/03/01 05:38:35;;;;;;;38.05;15.18;;;-2.40;99.90;;;;;;5122926;27;20128;-51
2023/03/01 05:41:01;;;;;;;37.70;15.00;;;-2.50;99.90;;;;;;5086836;28;20145;-49
2023/03/01 05:43:31;;;;;;;27.15;13.60;;;-2.50;99.90;;;;;;5123237;27;20629;-51
2023/03/01 05:45:58;;;;;;;26.73;13.27;;;-2.50;99.90;;;;;;5132239;27;20039;-47
2023/03/01 05:48:23;;;;;;;45.50;13.85;;;-2.50;99.90;;;;;;5133373;27;20257;-50
2023/03/01 05:50:49;;;;;;;26.00;13.00;;;-2.50;99.90;;;;;;5132510;27;20038;-50
2023/03/01 05:53:18;;;;;;;25.50;12.52;;;-3.40;99.90;;;;;;5099930;27;20044;-47
2023/03/01 05:55:47;;;;;;;32.05;13.27;;;-2.50;99.90;;;;;;5134110;27;20039;-48
2023/03/01 05:58:15;;;;;;;28.85;12.93;;;-2.60;99.90;;;;;;5134262;27;20066;-50
2023/03/01 06:00:42;;;;;;;26.13;13.10;;;-2.60;99.90;;;;;;5134291;27;20035;-50
2023/03/01 06:03:11;;;;;;;26.60;13.70;;;-2.60;99.90;;;;;;5132800;27;20104;-49
2023/03/01 06:05:37;;;;;;;26.23;13.55;;;-2.60;99.90;;;;;;5089844;28;20083;-48
2023/03/01 06:08:03;;;;;;;25.80;13.00;;;-2.60;99.90;;;;;;5120206;27;20066;-50
2023/03/01 06:10:29;;;;;;;25.50;12.85;;;-2.60;99.90;;;;;;5091737;28;20046;-47
2023/03/01 06:12:55;;;;;;;23.30;12.20;;;-2.60;99.90;;;;;;5093131;28;20040;-53
2023/03/01 06:15:22;;;;;;;22.70;12.85;;;-2.60;99.90;;;;;;5092902;28;20037;-51
2023/03/01 06:17:48;;;;;;;21.10;11.80;;;-2.60;99.90;;;;;;5121331;27;20041;-51
2023/03/01 06:20:19;;;;;;;23.60;12.05;;;-2.60;99.90;;;;;;5133389;27;20074;-48
2023/03/01 06:22:46;;;;;;;21.60;12.35;;;-2.60;99.90;;;;;;5130858;27;20038;-48
2023/03/01 06:25:13;;;;;;;21.52;12.52;;;-2.60;99.90;;;;;;5132584;27;20051;-48
2023/03/01 06:27:39;;;;;;;22.13;12.13;;;-2.60;99.90;;;;;;5133794;27;20035;-47
2023/03/01 06:30:06;;;;;;;23.02;12.30;;;-2.60;99.90;;;;;;5133637;27;20096;-51
2023/03/01 06:32:32;;;;;;;22.35;11.95;;;-2.60;99.90;;;;;;5122079;27;20031;-51
2023/03/01 06:34:58;;;;;;;22.80;11.60;;;-2.60;99.90;;;;;;5132825;27;20438;-51
2023/03/01 06:37:27;;;;;;;23.98;12.32;;;-2.60;99.90;;;;;;5098227;28;20555;-52
2023/03/01 06:39:53;;;;;;;25.80;14.25;;;-2.50;99.90;;;;;;5109828;27;20382;-49
2023/03/01 06:42:18;;;;;;;24.95;12.77;;;-2.60;99.90;;;;;;5130804;27;20054;-48
2023/03/01 06:44:45;;;;;;;24.65;12.57;;;-2.50;99.90;;;;;;5102538;28;20044;-49
2023/03/01 06:47:11;;;;;;;23.10;12.60;;;-2.50;99.90;;;;;;5077535;27;20059;-48
2023/03/01 06:49:37;;;;;;;24.30;12.18;;;-2.50;99.90;;;;;;5132280;27;20067;-48
2023/03/01 06:52:03;;;;;;;25.92;12.15;;;-2.50;99.90;;;;;;5131154;27;20382;-50
2023/03/01 06:54:28;;;;;;;25.67;13.43;;;-2.50;99.90;;;;;;5131517;27;20035;-49
2023/03/01 06:56:54;;;;;;;26.13;13.35;;;-2.50;99.90;;;;;;5131372;27;20386;-50
2023/03/01 06:59:20;;;;;;;26.05;13.30;;;-2.50;99.90;;;;;;5130756;27;20405;-51
2023/03/01 07:01:46;;;;;;;25.75;13.88;;;-2.50;99.90;;;;;;5130831;27;20569;-51
2023/03/01 07:04:13;;;;;;;23.67;12.55;;;-2.50;99.90;;;;;;5130477;27;20167;-48
2023/03/01 07:06:39;;;;;;;25.90;13.32;;;-2.40;99.90;;;;;;5081641;28;20046;-47
2023/03/01 07:09:04;;;;;;;26.33;13.52;;;-2.40;99.90;;;;;;5131286;27;20031;-49
2023/03/01 07:11:30;;;;;;;25.67;13.32;;;-2.40;99.90;;;;;;5131303;27;20397;-49
2023/03/01 07:13:56;;;;;;;26.65;13.73;;;-2.30;99.90;;;;;;5132850;27;20486;-49
2023/03/01 07:16:22;;;;;;;28.67;14.27;;;-2.30;99.90;;;;;;5131528;27;20039;-49
2023/03/01 07:18:48;;;;;;;24.27;13.27;;;-2.30;99.90;;;;;;5131214;27;20111;-49
2023/03/01 07:21:14;;;;;;;26.70;13.02;;;-2.20;99.90;;;;;;5130462;27;20241;-51
2023/03/01 07:23:40;;;;;;;25.35;13.10;;;-2.20;99.90;;;;;;5100063;27;20036;-48
2023/03/01 07:26:06;;;;;;;24.77;13.27;;;-2.20;99.90;;;;;;5117582;27;20465;-51
2023/03/01 07:28:35;;;;;;;26.80;14.40;;;-2.20;99.90;;;;;;5122797;27;20048;-47
2023/03/01 07:31:05;;;;;;;29.38;15.00;;;-2.20;99.90;;;;;;5128014;27;20047;-50
2023/03/01 07:33:31;;;;;;;30.27;14.90;;;-2.10;99.90;;;;;;5122926;27;20588;-51
2023/03/01 07:36:01;;;;;;;28.08;14.15;;;-2.00;99.90;;;;;;5126811;27;20138;-49
2023/03/01 07:38:28;;;;;;;32.20;15.75;;;-2.00;99.90;;;;;;5094315;27;20050;-49
2023/03/01 07:41:01;;;;;;;29.85;15.57;;;-2.00;99.90;;;;;;5120620;27;20493;-51
2023/03/01 07:43:28;;;;;;;33.60;16.17;;;-2.00;99.90;;;;;;5124142;27;20073;-48
2023/03/01 07:45:53;;;;;;;34.00;15.95;;;-1.80;99.90;;;;;;5096160;28;20039;-48
2023/03/01 07:48:19;;;;;;;32.50;17.15;;;-1.80;99.90;;;;;;5122067;27;20122;-50
2023/03/01 07:50:44;;;;;;;36.72;17.40;;;-1.80;99.90;;;;;;5125130;27;20122;-49
2023/03/01 07:53:10;;;;;;;39.15;17.17;;;-1.00;99.90;;;;;;5124969;27;20097;-49
2023/03/01 07:55:37;;;;;;;39.15;16.70;;;-1.60;99.90;;;;;;5127292;27;20076;-50
2023/03/01 07:58:02;;;;;;;34.75;16.80;;;-1.60;99.90;;;;;;5126230;27;20114;-48
2023/03/01 08:00:28;;;;;;;38.70;17.52;;;-1.60;99.90;;;;;;5125707;27;20526;-52
2023/03/01 08:02:54;;;;;;;36.47;17.70;;;-1.50;99.90;;;;;;5124555;27;20064;-49
2023/03/01 08:05:21;;;;;;;38.72;18.38;;;-1.40;99.90;;;;;;5124445;27;20115;-48
2023/03/01 08:07:47;;;;;;;37.78;17.75;;;-1.40;99.90;;;;;;5113269;27;20562;-50
2023/03/01 08:10:13;;;;;;;42.88;20.05;;;-1.30;99.90;;;;;;5107732;27;20126;-52
2023/03/01 08:12:39;;;;;;;44.35;20.17;;;-1.20;99.90;;;;;;5108435;27;20491;-48
2023/03/01 08:15:05;;;;;;;40.63;18.95;;;-1.20;99.90;;;;;;5086343;27;20043;-48
2023/03/01 08:17:30;;;;;;;40.92;20.13;;;-1.10;99.90;;;;;;5086624;28;20032;-48
2023/03/01 08:19:56;;;;;;;41.22;20.45;;;-1.00;99.90;;;;;;5110546;27;20105;-49
2023/03/01 08:22:22;;;;;;;50.53;21.85;;;-1.00;99.90;;;;;;5104990;28;20074;-52
2023/03/01 08:24:47;;;;;;;48.90;21.88;;;-0.90;99.90;;;;;;5085996;28;20036;-48
2023/03/01 08:27:15;;;;;;;45.47;21.15;;;-0.80;99.90;;;;;;5108516;27;20028;-47
2023/03/01 08:29:41;;;;;;;45.28;21.20;;;-0.70;99.90;;;;;;5109185;28;20035;-50
2023/03/01 08:32:06;;;;;;;42.67;22.27;;;-0.70;99.90;;;;;;5106547;28;20023;-50
2023/03/01 08:34:35;;;;;;;41.83;20.73;;;-0.60;99.90;;;;;;5086029;28;20498;-50
2023/03/01 08:37:01;;;;;;;44.92;22.25;;;-0.50;99.90;;;;;;5101497;28;20058;-47
2023/03/01 08:39:27;;;;;;;44.60;21.63;;;-0.50;99.90;;;;;;5103118;28;20487;-51
2023/03/01 08:41:53;;;;;;;42.95;21.63;;;-0.40;99.90;;;;;;5109254;28;20270;-50
2023/03/01 08:44:20;;;;;;;51.83;22.98;;;-0.30;99.90;;;;;;5107781;28;20031;-49
2023/03/01 08:46:49;;;;;;;50.80;22.58;;;-0.40;99.90;;;;;;5107161;28;20028;-50
2023/03/01 08:49:18;;;;;;;53.33;24.77;;;-0.20;99.90;;;;;;5106377;28;20039;-50
2023/03/01 08:51:44;;;;;;;47.58;23.25;;;-0.10;99.90;;;;;;5103333;28;20028;-48
2023/03/01 08:54:14;;;;;;;49.63;23.38;;;0.10;99.90;;;;;;5099709;28;20036;-50
2023/03/01 08:56:40;;;;;;;41.17;21.85;;;0.20;99.90;;;;;;5104501;28;20047;-46
2023/03/01 08:59:06;;;;;;;45.15;21.77;;;0.30;99.90;;;;;;5102953;28;20097;-52
2023/03/01 09:01:32;;;;;;;44.28;21.38;;;0.40;99.90;;;;;;5085709;28;20040;-50
2023/03/01 09:03:58;;;;;;;42.60;21.38;;;0.50;99.90;;;;;;5109460;28;20059;-49
2023/03/01 09:06:24;;;;;;;40.80;21.05;;;0.60;99.90;;;;;;5107359;27;20043;-50
2023/03/01 09:08:50;;;;;;;40.33;19.38;;;0.80;99.90;;;;;;5111583;27;20552;-52
2023/03/01 09:11:21;;;;;;;32.88;17.05;;;1.00;99.90;;;;;;5107816;27;20152;-49
2023/03/01 09:13:48;;;;;;;50.03;17.35;;;1.10;99.90;;;;;;5090012;27;20032;-49
2023/03/01 09:16:17;;;;;;;27.98;15.48;;;1.20;99.90;;;;;;5089734;27;20043;-49
2023/03/01 09:18:44;;;;;;;26.30;14.43;;;1.30;99.90;;;;;;5108914;27;20070;-50
2023/03/01 09:21:14;;;;;;;29.63;15.18;;;1.50;99.90;;;;;;5109843;27;20032;-49
2023/03/01 09:23:45;;;;;;;28.67;14.23;;;1.70;99.90;;;;;;5110226;27;20071;-52
2023/03/01 09:26:18;;;;;;;27.00;13.52;;;1.90;99.90;;;;;;5110316;27;20526;-50
2023/03/01 09:28:45;;;;;;;23.17;13.18;;;2.20;99.90;;;;;;5111239;27;20030;-54
2023/03/01 09:31:14;;;;;;;23.70;12.20;;;2.40;99.90;;;;;;5110729;27;20451;-48
2023/03/01 09:33:41;;;;;;;25.23;12.60;;;2.40;99.90;;;;;;5112309;27;20042;-49
2023/03/01 09:36:14;;;;;;;19.25;11.20;;;2.60;99.90;;;;;;5089926;27;20394;-48
2023/03/01 09:38:40;;;;;;;21.60;10.88;;;2.80;99.90;;;;;;5112298;27;20126;-48
2023/03/01 09:41:20;;;;;;;21.67;10.68;;;3.40;99.90;;;;;;5087110;27;20566;-49
2023/03/01 09:43:53;;;;;;;20.52;10.98;;;3.00;99.90;;;;;;5089693;27;20047;-50
2023/03/01 09:46:22;;;;;;;19.90;10.80;;;3.00;99.90;;;;;;5084119;27;20043;-48
2023/03/01 09:49:04;;;;;;;18.63;10.23;;;3.40;99.90;;;;;;5108446;27;20035;-48
2023/03/01 09:51:35;;;;;;;14.27;9.32;;;3.30;99.90;;;;;;5106047;27;20088;-47
2023/03/01 09:54:03;;;;;;;15.40;8.25;;;4.70;99.90;;;;;;5117062;27;20383;-51
2023/03/01 09:56:41;;;;;;;14.15;8.25;;;3.60;99.90;;;;;;5110540;27;20044;-49
2023/03/01 09:59:10;;;;;;;13.75;7.35;;;3.70;99.90;;;;;;5111520;27;20465;-51
2023/03/01 10:01:51;;;;;;;13.13;6.93;;;3.90;99.90;;;;;;5089609;28;20039;-50
2023/03/01 10:04:26;;;;;;;12.00;6.22;;;4.00;99.90;;;;;;5109544;27;20079;-52
2023/03/01 10:07:03;;;;;;;10.73;6.07;;;4.10;99.90;;;;;;5109071;27;20051;-48
2023/03/01 10:09:33;;;;;;;10.18;5.55;;;4.20;99.90;;;;;;5086519;27;20432;-48
2023/03/01 10:12:02;;;;;;;11.18;5.78;;;4.30;99.90;;;;;;5104946;27;20028;-50
2023/03/01 10:14:34;;;;;;;12.02;5.47;;;4.40;99.90;;;;;;5108218;27;20059;-46
2023/03/01 10:17:12;;;;;;;10.77;5.60;;;4.40;99.90;;;;;;5087880;28;20471;-51
2023/03/01 10:19:46;;;;;;;11.52;5.53;;;4.50;99.90;;;;;;5106603;27;20123;-50
2023/03/01 10:22:23;;;;;;;10.23;4.82;;;4.50;99.90;;;;;;5084279;27;20818;-52
2023/03/01 10:24:51;;;;;;;8.65;4.90;;;4.80;99.90;;;;;;5107236;27;20047;-49
2023/03/01 10:27:33;;;;;;;10.45;5.10;;;5.00;99.90;;;;;;5089284;27;20161;-50
2023/03/01 10:30:16;;;;;;;7.72;4.22;;;4.60;99.90;;;;;;5113797;27;20032;-48
2023/03/01 10:32:42;;;;;;;11.02;4.43;;;4.70;99.90;;;;;;5106222;27;20051;-48
2023/03/01 10:35:26;;;;;;;9.05;4.88;;;4.90;99.90;;;;;;5089823;27;20059;-49
2023/03/01 10:38:04;;;;;;;12.43;5.40;;;4.80;99.90;;;;;;5104988;27;20089;-52
2023/03/01 10:40:31;;;;;;;8.63;4.72;;;4.90;99.90;;;;;;5101636;27;20122;-48
2023/03/01 10:43:00;;;;;;;8.73;5.50;;;5.00;99.90;;;;;;5106039;27;20042;-48
2023/03/01 10:45:39;;;;;;;10.10;5.22;;;5.30;99.90;;;;;;5108069;27;20028;-50
2023/03/01 10:48:25;;;;;;;10.18;5.05;;;5.50;99.90;;;;;;5108618;27;20368;-50
2023/03/01 10:50:57;;;;;;;10.32;5.10;;;5.70;99.90;;;;;;5088103;27;20040;-50
2023/03/01 10:53:30;;;;;;;9.38;4.85;;;5.90;99.90;;;;;;5089531;27;20461;-48
2023/03/01 10:56:06;;;;;;;7.57;4.50;;;6.00;99.90;;;;;;5111752;27;20051;-50
2023/03/01 10:58:33;;;;;;;7.80;4.47;;;6.20;99.90;;;;;;5111445;27;20054;-47
2023/03/01 11:01:02;;;;;;;6.72;4.00;;;6.30;99.90;;;;;;5110480;27;20323;-48
2023/03/01 11:03:37;;;;;;;7.07;4.30;;;6.40;99.90;;;;;;5112458;27;20053;-47
2023/03/01 11:06:06;;;;;;;10.13;4.47;;;6.50;99.90;;;;;;5079640;27;20043;-48
2023/03/01 11:08:53;;;;;;;7.70;4.50;;;6.70;99.90;;;;;;5110200;27;20028;-46
2023/03/01 11:11:35;;;;;;;7.22;4.15;;;6.70;99.90;;;;;;5110507;27;20034;-47
2023/03/01 11:14:22;;;;;;;9.23;4.65;;;6.70;99.90;;;;;;5089504;27;20035;-49
2023/03/01 11:17:11;;;;;;;8.55;5.05;;;6.90;99.90;;;;;;5109926;27;20554;-48
2023/03/01 11:19:37;;;;;;;7.43;4.38;;;6.90;99.90;;;;;;5090404;27;20038;-50
2023/03/01 11:22:10;;;;;;;8.05;4.45;;;6.90;99.90;;;;;;5108307;27;20019;-50
2023/03/01 11:24:46;;;;;;;8.88;4.53;;;6.90;99.90;;;;;;5107298;27;20504;-49
2023/03/01 11:27:15;;;;;;;9.10;4.97;;;7.00;99.90;;;;;;5110544;27;20467;-50
2023/03/01 11:30:04;;;;;;;8.65;5.07;;;7.20;99.90;;;;;;5108996;27;20255;-49
2023/03/01 11:32:45;;;;;;;7.85;4.28;;;7.10;99.90;;;;;;5109373;27;20038;-50
2023/03/01 11:35:28;;;;;;;10.05;5.20;;;7.10;99.90;;;;;;5108074;27;20035;-50
2023/03/01 11:38:18;;;;;;;8.18;5.50;;;7.20;99.90;;;;;;5088644;27;20122;-47
2023/03/01 11:40:53;;;;;;;10.02;6.07;;;7.40;99.90;;;;;;5111106;27;20767;-47
2023/03/01 11:43:43;;;;;;;9.73;6.00;;;7.70;99.90;;;;;;5108176;27;20044;-48
2023/03/01 11:46:08;;;;;;;8.65;5.70;;;8.00;99.90;;;;;;5107381;27;20428;-49
2023/03/01 11:49:00;;;;;;;9.25;6.15;;;8.20;99.90;;;;;;5107552;27;20106;-50
2023/03/01 11:51:47;;;;;;;8.45;5.80;;;8.40;99.90;;;;;;5104498;27;20067;-49
2023/03/01 11:54:24;;;;;;;8.77;5.65;;;8.60;99.90;;;;;;5087451;28;20063;-51
2023/03/01 11:57:22;;;;;;;9.23;6.63;;;8.80;99.90;;;;;;5107070;27;20031;-50
2023/03/01 11:59:51;;;;;;;8.65;5.50;;;8.90;99.90;;;;;;5106246;27;20035;-49
2023/03/01 12:02:41;;;;;;;9.90;6.70;;;9.00;99.90;;;;;;5087771;27;21813;-51
2023/03/01 12:05:36;;;;;;;9.80;6.00;;;9.10;99.90;;;;;;5105959;27;20503;-48
2023/03/01 12:08:31;;;;;;;8.57;6.13;;;9.30;99.90;;;;;;5107622;27;20028;-52
2023/03/01 12:11:24;;;;;;;8.45;5.47;;;9.20;99.90;;;;;;5107718;27;20047;-47
2023/03/01 12:14:20;;;;;;;8.55;5.97;;;9.30;99.90;;;;;;5107525;27;20040;-49
2023/03/01 12:16:55;;;;;;;9.38;6.35;;;9.50;99.90;;;;;;5108069;27;20046;-50
2023/03/01 12:19:39;;;;;;;8.18;6.13;;;9.60;99.90;;;;;;5107362;27;20474;-50
2023/03/01 12:22:20;;;;;;;8.30;6.30;;;9.70;99.90;;;;;;5107905;27;20051;-48
2023/03/01 12:25:15;;;;;;;8.27;6.05;;;9.70;99.90;;;;;;5107713;27;20042;-52
2023/03/01 12:28:08;;;;;;;8.85;6.15;;;9.70;99.90;;;;;;5106901;27;20039;-51
2023/03/01 12:31:13;;;;;;;8.90;5.80;;;9.90;99.90;;;;;;5108211;28;20042;-52
2023/03/01 12:33:49;;;;;;;9.70;6.38;;;10.10;99.90;;;;;;5087431;27;20257;-51
2023/03/01 12:36:40;;;;;;;8.48;6.15;;;10.20;99.90;;;;;;5127922;27;20111;-48
2023/03/01 12:39:24;;;;;;;8.45;5.70;;;11.30;99.90;;;;;;5127032;28;20042;-50
2023/03/01 12:42:02;;;;;;;8.90;5.70;;;10.00;99.90;;;;;;5127617;27;20063;-52
2023/03/01 12:45:07;;;;;;;10.15;5.72;;;10.10;99.90;;;;;;5088648;28;20491;-50
2023/03/01 12:48:06;;;;;;;9.07;6.03;;;10.50;99.90;;;;;;5127328;28;20463;-49
2023/03/01 12:50:59;;;;;;;8.98;5.85;;;10.80;99.90;;;;;;5098476;28;20506;-49